• Join FlightAware (Why Join?)
  • Login
  • US Flag 
10:44AM EDT


 

Airport Tracker/Info


-or-


 

Live Flight TrackerFlight Track Log ✈ N193PP ✈ 06-Jul-2013 ✈ KECP - KRYY

Flight Track Log - Related Links

Times and Time Zones

All times are in EDT time to prevent confusion due to time zone crossing. See the N193PP flight status page for this flight to view local times or setup timezone preferences in your user account.

Time Position Orientation Groundspeed Altitude Reporting Facility
EDT Latitude Longitude Course Direction KTS MPH feet Rate Location/Type
04:37PM 30.4450 -85.4708 North 247 284 15,700  Level Jacksonville Center
04:38PM 30.5183 -85.4656 North 231 266 18,000 2,280 Climbing Jacksonville Center
04:39PM 30.5956 -85.4603 North 244 281 20,300 2,160 Climbing Jacksonville Center
04:40PM 30.6731 -85.4528 North 264 304 22,400 1,920 Climbing Jacksonville Center
04:41PM 30.7567 -85.4453 North 282 325 24,200 1,260 Climbing Jacksonville Center
04:42PM 30.8444 -85.4381 North 299 344 25,000 360 Climbing Jacksonville Center
04:43PM 30.9408 -85.4261 North 320 368 25,000  Level Jacksonville Center
04:44PM 31.0369 -85.4142 North 340 391 25,000  Level Jacksonville Center
04:45PM 31.1436 -85.4072 North 362 417 25,000  Level Jacksonville Center
04:46PM 31.2483 -85.3956 North 369 425 25,000  Level Jacksonville Center
04:47PM 31.4200 -85.3797 North 380 437 25,000  Level Atlanta Center
04:48PM 31.5411 -85.3644 North 389 448 25,000  Level Atlanta Center
04:49PM 31.6478 -85.3539 North 389 448 25,000  Level Atlanta Center
04:50PM 31.7522 -85.3431 North 384 442 25,000  Level Atlanta Center
04:51PM 31.8650 -85.3325 North 390 449 25,000 -240 Level Atlanta Center
04:52PM 31.9739 -85.3194 North 390 449 24,600 -480 Descending Atlanta Center
04:53PM 32.0844 -85.3086 North 390 449 24,100 -300 Descending Atlanta Center
04:54PM 32.1869 -85.2978 North 385 443 24,000 -600 Descending Atlanta Center
04:55PM 32.2889 -85.3214 349° North 374 430 23,000 -1,260 Descending Atlanta Center
04:56PM 32.3886 -85.3622 341° North 373 429 21,500 -1,500 Descending Atlanta Center
04:57PM 32.4822 -85.3981 342° North 362 417 20,000 -1,560 Descending Atlanta Center
04:58PM 32.5611 -85.4264 343° North 331 381 18,400 -1,440 Descending Atlanta Center
04:59PM 32.6467 -85.4450 350° North 313 360 17,200 -720 Descending Atlanta Center
05:00PM 32.7364 -85.4439 North 313 360 17,000 -600 Descending Atlanta Center
05:01PM 32.8219 -85.4478 358° North 313 360 16,000 -1,020 Descending Atlanta Center
05:02PM 32.8925 -85.4811 338° Northwest 290 334 15,000 -1,200 Descending Atlanta Center
05:03PM 32.9631 -85.5219 334° Northwest 279 321 13,700 -1,380 Descending Atlanta Center
05:04PM 33.0061 -85.5869 308° West 268 308 12,300 -1,200 Descending Atlanta Center
05:05PM 33.0050 -85.6711 269° West 243 280 11,300 -660 Descending Atlanta Center
05:06PM 32.9978 -85.7428 263° West 230 265 11,000 -180 Descending Atlanta Center
05:07PM 33.0133 -85.8175 284° West 230 265 11,000  Level Atlanta Center
05:08PM 33.0714 -85.8458 338° Northwest 221 254 11,000 -420 Level Atlanta Center
05:09PM 33.1444 -85.8375 North 197 227 10,200 -900 Descending Atlanta Center
05:10PM 33.2158 -85.8092 18° North 235 270 9,300 -840 Descending Atlanta Center
05:11PM 33.2872 -85.7833 17° North 246 283 8,600 -660 Descending Atlanta Center
05:12PM 33.3586 -85.7597 15° North 258 297 8,000 -300 Descending Atlanta Center
05:13PM 33.4133 -85.7236 29° Northeast 247 284 8,000 -300 Level Atlanta Center
05:14PM 33.4517 -85.6597 54° Northeast 226 260 7,400 -840 Descending Atlanta Center
05:15PM 33.4839 -85.6006 57° Northeast 226 260 6,400 -780 Descending Atlanta Center
05:16PM 33.5281 -85.5564 40° Northeast 207 238 5,900 -600 Descending Atlanta Center
05:17PM 33.5808 -85.5275 25° Northeast 199 229 5,200 -480 Descending Atlanta Center
05:18PM 33.6231 -85.4808 43° Northeast 204 235 5,000 -120 Descending Atlanta Center
05:19PM 33.6425 -85.4236 68° East 186 214 5,000  Level Atlanta Center
05:20PM 33.6619 -85.3617 69° East 186 214 5,000  Level Atlanta Center
05:21PM 33.6792 -85.3094 68° East 192 221 5,000 -420 Level Atlanta Center
05:22PM 33.7194 -85.2575 47° Northeast 198 228 4,200 -540 Descending Atlanta Center
05:23PM 33.7553 -85.2031 52° Northeast 204 235 4,000 -120 Descending Atlanta Center
05:24PM 33.7933 -85.1536 47° Northeast 204 235 4,000  Level Atlanta Center
05:25PM 33.8272 -85.1042 50° Northeast 195 224 4,000  Level Atlanta Center
05:26PM 33.8714 -85.0572 41° Northeast 195 224 4,000  Level Atlanta Center
05:27PM 33.9117 -85.0025 48° Northeast 195 224 4,000 480 Level Atlanta Center
05:28PM 33.9433 -84.9478 55° Northeast 196 226 5,000 -540 Climbing Atlanta Center
05:29PM 33.9644 -84.8903 66° East 179 206 3,000 -840 Descending Atlanta Center
05:31PM 34.0000 -84.7833 68° East 157 181 2,700 -120 Descending Atlanta TRACON
05:32PM 34.0000 -84.7333 90° East 163 188 2,700 -480 Level Atlanta TRACON
05:33PM 34.0167 -84.6833 68° East 150 173 1,700 -1,020 Descending Atlanta TRACON